Aérodrome :
LOGIN :

S'inscrire | Disclaimer

   EN    FR    IT 

 










Légende :    VFR   VFR Marginal   IFR   IFR Intensif   IFR Très Intensif
Visi : 
Plafond : 
>= 8 km
>= 3000ft
5 à 8 km
1000 à 3000 ft
1500m à 5 km
500 à 1000 ft
800 à 1500m
200 à 500 ft
< 800m
< 200 ft
Symboles :   Orages  Brouillard  Fortes neiges  Fortes précipitations  Vent > 20 kt
SIGMETs :   Divers  Orages  Givrage  Turbulence  Onde Orograph.  Cendres Volcan.






- Altitude de l'aérodrome : 6 ft
- Code IATA : CFU


LGKR - Corfu Kerkyra

DERNIER METAR :
  • 240950Z 15005KT 9999 FEW025 19/13 Q1009 NOSIG

METARs EXPIRÉS :
  • 240920Z 12006KT 9999 FEW025 18/12 Q1009 NOSIG
  • 240850Z 04004KT 9999 FEW025 18/12 Q1009 NOSIG
  • 240820Z 05005KT 9999 FEW025 18/12 Q1008 NOSIG
  • 240750Z 04003KT 9999 FEW025 18/12 Q1009 NOSIG
  • 240720Z 32003KT 9999 FEW020 18/13 Q1009 NOSIG
  • 240650Z 31005KT 9999 FEW020 17/13 Q1009 NOSIG
  • 240620Z 00000KT 9999 FEW020 17/14 Q1009 NOSIG
  • 240550Z 00000KT 9999 FEW020 15/11 Q1008 NOSIG
  • 240520Z 00000KT 9999 FEW018 13/10 Q1007 NOSIG

TAF TAF LGKR
Valide du 24 à 06h jusqu'au 25 à 06h UTC


240500Z 2406/2506 32010KT 9999 FEW018
BECMG 2413/2415 22010KT FEW018 BKN070
PROB40
TEMPO 2419/2506 5000 RA FEW015 FEW018TCU BKN025 OVC070
PROB40
TEMPO 2422/2503 4000 TSRA FEW010 FEW016CB BKN020 OVC060



MET'MAP, la Météo Aéronautique d'un coup d'oeil ! - Copyright ORBIFLY Décembre 2007 - Disclaimer

ORBIFLY MET'MAP TEAM :

Programmation & Développement : Alexandra Zaïnal
Sur une idée originale de : Baudouin d'Aumeries
Soutien technique & logistique : Manuel Goepfert
Assistance : Marc-Olivier Méhu




SOURCES & CREDITS :

   NOAA